Apex, North Carolina
Current Conditions -  °F | °C
As of 1:51 PM on Saturday 20 Dec 2014 (Local Time) from KRDU Reporting Station
Overcast Overcast  
Wind Chill:   Ceiling: 700
Heat Index:   Visibility: 7mi
Dew Point:   Wind: 5mph
Humidity: 82%   Direction: 50°NE
Pressure: 30.24"   Gusts: NA
Location:  35.73°N, 78.84°W
Report Text: KRDU 201851Z 05004KT 7SM OVC007 03/00 A3024 RMK AO2 RAE43 SLP244 P0000 T00280000
Loading
Personal Weather Stations






























Interactive Weather Map New forecast layout! Learn more

10-Day Weather Forecast

Advertisements
Track Severe Weather on mobile